Time;durP1;ratioP1;P1;durP2;ratioP2;P2;SDS_P1;SDS_P2;PMS_P1;PMS_P2;Temp;Humidity;BMP_temperature;BMP_pressure;BME280_temperature;BME280_humidity;BME280_pressure;Samples;Min_cycle;Max_cycle;Signal;HPM_P1;HPM_P2
2023/04/03 00:00:37;;;;;;;4.40;3.20;;;7.40;47.60;;;;;;20737;6776;117145;-73
2023/04/03 00:03:13;;;;;;;3.80;3.50;;;7.10;48.30;;;;;;20534;6773;322308;-73
2023/04/03 00:05:49;;;;;;;3.33;3.13;;;7.20;48.00;;;;;;20756;6772;117007;-71
2023/04/03 00:08:30;;;;;;;3.67;3.47;;;7.20;48.30;;;;;;20494;6795;308448;-71
2023/04/03 00:11:00;;;;;;;3.40;3.17;;;7.30;47.10;;;;;;20719;6780;117746;-71
2023/04/03 00:13:36;;;;;;;3.57;3.37;;;7.40;47.10;;;;;;20514;6773;310781;-71
2023/04/03 00:16:12;;;;;;;3.77;3.57;;;7.40;46.90;;;;;;20786;6762;118027;-72
2023/04/03 00:18:47;;;;;;;3.10;3.00;;;7.40;47.30;;;;;;20696;6776;118535;-72
2023/04/03 00:21:24;;;;;;;2.90;2.70;;;7.20;48.00;;;;;;20722;6789;122136;-71
2023/04/03 00:24:00;;;;;;;3.70;3.50;;;6.90;48.20;;;;;;20437;6792;313004;-71
2023/04/03 00:26:35;;;;;;;3.90;3.60;;;7.10;47.40;;;;;;20547;6787;307544;-71
2023/04/03 00:29:10;;;;;;;3.60;3.30;;;7.40;46.60;;;;;;20807;6754;117656;-72
2023/04/03 00:31:46;;;;;;;3.27;3.00;;;7.40;47.20;;;;;;20737;6774;117080;-71
2023/04/03 00:34:22;;;;;;;3.50;3.30;;;7.20;46.70;;;;;;20388;6789;324244;-71
2023/04/03 00:36:58;;;;;;;3.40;3.20;;;7.20;46.70;;;;;;20726;6769;117418;-70
2023/04/03 00:39:33;;;;;;;4.10;3.10;;;7.20;47.10;;;;;;20749;6774;118193;-73
2023/04/03 00:42:09;;;;;;;3.03;2.83;;;6.90;47.60;;;;;;20718;6776;117004;-71
2023/04/03 00:44:45;;;;;;;3.00;2.80;;;6.70;48.20;;;;;;20609;6784;118899;-72
2023/04/03 00:47:29;;;;;;;4.20;3.90;;;6.50;48.70;;;;;;20496;6799;307746;-71
2023/04/03 00:49:56;;;;;;;3.90;3.60;;;6.70;47.70;;;;;;20520;6790;307311;-73
2023/04/03 00:52:31;;;;;;;3.73;3.43;;;7.10;46.60;;;;;;20629;6791;118126;-73
2023/04/03 00:55:07;;;;;;;3.80;3.50;;;7.10;47.00;;;;;;20315;6787;338369;-74
2023/04/03 00:57:43;;;;;;;3.80;3.60;;;7.10;46.70;;;;;;20606;6774;341315;-71
2023/04/03 01:00:18;;;;;;;3.50;3.27;;;7.40;45.80;;;;;;20712;6807;116928;-73
2023/04/03 01:02:54;;;;;;;3.23;2.93;;;7.30;46.20;;;;;;20698;6803;118205;-73
2023/04/03 01:05:33;;;;;;;3.72;3.53;;;6.90;46.80;;;;;;20303;6871;331970;-73
2023/04/03 01:08:06;;;;;;;4.15;3.83;;;7.00;46.50;;;;;;20513;6800;282543;-71
2023/04/03 01:10:41;;;;;;;4.68;4.28;;;7.30;45.90;;;;;;20530;6766;308331;-75
2023/04/03 01:13:16;;;;;;;4.20;3.90;;;7.50;45.60;;;;;;20503;6781;309012;-72
2023/04/03 01:15:52;;;;;;;3.33;3.13;;;7.60;45.10;;;;;;20775;6769;118584;-72
2023/04/03 01:18:28;;;;;;;3.57;3.30;;;7.00;46.40;;;;;;20821;6769;117116;-72
2023/04/03 01:21:31;;;;;;;3.43;3.23;;;7.00;46.50;;;;;;20753;6769;120723;-72
2023/04/03 01:24:28;;;;;;;3.75;3.55;;;6.80;46.70;;;;;;20479;6772;280708;-72
2023/04/03 01:27:04;;;;;;;3.60;3.40;;;6.80;46.70;;;;;;20724;6825;120633;-72
2023/04/03 01:29:39;;;;;;;3.33;3.13;;;6.80;47.10;;;;;;20812;6758;118383;-72
2023/04/03 01:32:15;;;;;;;3.00;2.87;;;6.50;47.50;;;;;;20771;6768;116952;-72
2023/04/03 01:34:50;;;;;;;3.47;3.17;;;6.30;48.10;;;;;;20587;6769;118131;-72
2023/04/03 01:37:26;;;;;;;4.10;3.90;;;6.10;48.60;;;;;;20607;6754;335795;-72
2023/04/03 01:40:01;;;;;;;3.90;3.70;;;6.30;48.00;;;;;;20659;6739;277114;-72
2023/04/03 01:42:37;;;;;;;4.12;3.90;;;6.70;47.00;;;;;;20584;6754;277839;-72
2023/04/03 01:45:13;;;;;;;4.25;4.05;;;7.00;46.10;;;;;;20458;6754;313081;-72
2023/04/03 01:47:49;;;;;;;4.27;4.00;;;7.40;45.20;;;;;;20566;6758;307897;-72
2023/04/03 01:50:26;;;;;;;3.70;3.50;;;7.40;45.20;;;;;;20859;6743;116904;-72
2023/04/03 01:53:01;;;;;;;3.80;3.60;;;7.20;45.80;;;;;;20635;6743;339336;-72
2023/04/03 01:55:37;;;;;;;3.30;3.10;;;7.10;45.60;;;;;;20856;6746;120854;-72
2023/04/03 01:58:12;;;;;;;3.97;3.78;;;6.90;46.10;;;;;;20567;6768;323992;-72
2023/04/03 02:00:48;;;;;;;4.20;3.90;;;6.90;45.80;;;;;;20576;6760;335826;-73
2023/04/03 02:03:24;;;;;;;3.70;3.50;;;7.20;45.50;;;;;;20765;6761;119071;-73
2023/04/03 02:05:59;;;;;;;3.83;3.63;;;7.00;45.90;;;;;;20812;6761;117522;-72
2023/04/03 02:08:35;;;;;;;4.00;3.80;;;6.60;46.60;;;;;;20593;6773;335868;-72
2023/04/03 02:11:10;;;;;;;4.10;3.90;;;6.70;46.30;;;;;;20593;6758;306418;-73
2023/04/03 02:13:46;;;;;;;4.00;3.70;;;7.00;45.60;;;;;;20433;6791;285975;-72
2023/04/03 02:16:21;;;;;;;3.50;3.30;;;7.20;45.00;;;;;;20839;6751;118117;-72
2023/04/03 02:18:57;;;;;;;3.30;3.10;;;7.10;45.50;;;;;;20776;6766;117825;-73
2023/04/03 02:21:32;;;;;;;3.92;3.72;;;6.70;46.20;;;;;;20569;6766;340521;-72
2023/04/03 02:24:08;;;;;;;3.53;3.33;;;6.80;46.10;;;;;;20686;6773;117460;-71
2023/04/03 02:26:44;;;;;;;3.90;3.60;;;6.70;46.40;;;;;;20597;6754;292964;-71
2023/04/03 02:29:19;;;;;;;3.80;3.60;;;6.70;45.90;;;;;;20632;6754;281902;-71
2023/04/03 02:31:55;;;;;;;3.87;3.57;;;7.00;45.30;;;;;;20775;6769;123206;-71
2023/04/03 02:34:30;;;;;;;4.03;3.50;;;6.90;45.70;;;;;;20653;6772;118088;-71
2023/04/03 02:37:07;;;;;;;3.90;3.70;;;6.60;46.10;;;;;;20573;6768;340223;-73
2023/04/03 02:39:42;;;;;;;4.30;4.00;;;6.60;46.10;;;;;;20524;6784;278098;-72
2023/04/03 02:42:18;;;;;;;4.10;3.80;;;7.00;45.70;;;;;;20551;6776;278232;-73
2023/04/03 02:44:53;;;;;;;3.90;3.70;;;7.20;45.00;;;;;;20377;6758;320368;-72
2023/04/03 02:47:29;;;;;;;4.30;3.90;;;7.40;44.50;;;;;;20652;6743;306993;-72
2023/04/03 02:50:08;;;;;;;3.93;3.60;;;7.50;44.10;;;;;;20865;6743;118154;-72
2023/04/03 02:52:43;;;;;;;3.30;3.10;;;7.30;44.80;;;;;;20845;6743;123356;-73
2023/04/03 02:55:16;;;;;;;3.77;3.50;;;6.90;45.70;;;;;;20490;6743;301258;-72
2023/04/03 02:57:52;;;;;;;3.70;3.50;;;6.90;45.70;;;;;;20807;6759;118230;-72
2023/04/03 03:00:27;;;;;;;3.60;3.40;;;6.80;45.80;;;;;;20769;6776;117177;-73
2023/04/03 03:03:04;;;;;;;3.95;3.65;;;6.60;46.10;;;;;;20575;6776;337377;-73
2023/04/03 03:05:41;;;;;;;5.20;4.83;;;6.60;46.10;;;;;;20755;6793;117127;-73
2023/04/03 03:08:19;;;;;;;6.00;5.50;;;6.40;46.90;;;;;;20715;6791;118452;-73
2023/04/03 03:10:53;;;;;;;3.70;3.50;;;6.40;46.90;;;;;;20629;6756;342992;-73
2023/04/03 03:13:28;;;;;;;3.90;3.70;;;6.40;47.00;;;;;;20553;6763;309219;-73
2023/04/03 03:16:04;;;;;;;3.70;3.43;;;6.90;45.70;;;;;;20765;6774;117395;-73
2023/04/03 03:18:45;;;;;;;3.97;3.57;;;6.80;45.80;;;;;;20806;6758;120783;-73
2023/04/03 03:21:20;;;;;;;3.62;3.42;;;6.60;46.50;;;;;;20617;6758;277701;-73
2023/04/03 03:23:56;;;;;;;3.60;3.40;;;6.70;45.70;;;;;;20746;6758;122778;-73
2023/04/03 03:26:34;;;;;;;3.83;3.53;;;6.70;45.90;;;;;;20858;6746;122801;-73
2023/04/03 03:29:07;;;;;;;3.50;3.30;;;6.40;46.40;;;;;;20770;6768;117000;-73
2023/04/03 03:31:42;;;;;;;3.75;3.50;;;6.20;47.10;;;;;;20568;6768;305717;-73
2023/04/03 03:34:18;;;;;;;3.77;3.30;;;6.40;46.70;;;;;;20659;6773;117356;-73
2023/04/03 03:36:57;;;;;;;2.73;2.63;;;6.50;46.90;;;;;;20749;6773;142488;-73
2023/04/03 03:39:29;;;;;;;3.60;3.33;;;6.30;47.30;;;;;;20757;6777;117058;-73
2023/04/03 03:42:05;;;;;;;3.10;2.90;;;6.20;47.80;;;;;;20716;6788;118202;-73
2023/04/03 03:44:41;;;;;;;3.73;3.53;;;6.00;48.00;;;;;;20416;6776;302451;-74
2023/04/03 03:47:17;;;;;;;3.87;3.57;;;6.30;46.90;;;;;;20608;6761;277634;-73
2023/04/03 03:49:54;;;;;;;3.70;3.40;;;6.60;45.90;;;;;;20756;6776;119679;-73
2023/04/03 03:52:30;;;;;;;3.60;3.40;;;6.60;46.30;;;;;;20604;6758;307714;-73
2023/04/03 03:55:05;;;;;;;3.43;3.20;;;6.80;45.50;;;;;;20549;6786;119719;-73
2023/04/03 03:57:41;;;;;;;3.43;3.23;;;6.60;45.60;;;;;;20818;6758;117482;-73
2023/04/03 04:00:16;;;;;;;3.53;3.23;;;6.40;46.20;;;;;;20819;6758;116852;-73
2023/04/03 04:02:52;;;;;;;3.90;3.60;;;6.10;46.70;;;;;;20591;6758;286023;-73
2023/04/03 04:05:28;;;;;;;3.78;3.58;;;6.30;46.30;;;;;;20330;6847;340189;-73
2023/04/03 04:08:04;;;;;;;3.43;3.23;;;6.60;45.80;;;;;;20759;6778;123011;-73
2023/04/03 04:10:40;;;;;;;3.80;3.60;;;6.50;45.90;;;;;;20523;6776;308390;-73
2023/04/03 04:13:18;;;;;;;3.60;3.40;;;6.50;46.10;;;;;;20751;6776;118718;-73
2023/04/03 04:15:54;;;;;;;3.80;3.50;;;6.20;46.60;;;;;;20772;6774;117147;-73
2023/04/03 04:18:30;;;;;;;4.32;4.03;;;6.20;46.60;;;;;;20610;6753;311110;-73
2023/04/03 04:21:26;;;;;;;3.57;3.27;;;6.30;46.60;;;;;;20777;6773;123040;-73
2023/04/03 04:24:01;;;;;;;4.47;4.07;;;6.30;46.80;;;;;;20534;6757;309198;-73
2023/04/03 04:26:36;;;;;;;3.63;3.40;;;6.50;46.30;;;;;;20866;6743;118983;-73
2023/04/03 04:29:13;;;;;;;4.10;3.80;;;6.50;46.00;;;;;;20647;6743;335206;-73
2023/04/03 04:31:49;;;;;;;3.97;3.70;;;6.50;46.00;;;;;;20643;6743;310701;-73
2023/04/03 04:34:25;;;;;;;4.20;3.90;;;6.80;45.40;;;;;;20540;6743;308780;-74
2023/04/03 04:37:01;;;;;;;4.20;3.80;;;7.10;44.90;;;;;;20855;6743;122960;-73
2023/04/03 04:39:36;;;;;;;4.23;3.90;;;6.90;45.40;;;;;;20553;6773;337665;-75
2023/04/03 04:42:12;;;;;;;3.70;3.40;;;6.90;45.00;;;;;;20731;6786;116988;-74
2023/04/03 04:44:47;;;;;;;3.30;3.10;;;6.80;45.40;;;;;;20613;6785;121592;-74
2023/04/03 04:47:23;;;;;;;3.40;3.10;;;6.50;46.10;;;;;;20729;6791;117712;-75
2023/04/03 04:49:58;;;;;;;3.70;3.50;;;6.30;46.70;;;;;;20582;6766;335317;-74
2023/04/03 04:52:34;;;;;;;3.13;2.93;;;6.40;46.10;;;;;;20767;6778;122200;-73
2023/04/03 04:55:10;;;;;;;3.87;3.58;;;6.40;46.30;;;;;;20399;6775;342030;-74
2023/04/03 04:57:48;;;;;;;3.63;3.43;;;6.60;45.40;;;;;;20752;6781;117429;-75
2023/04/03 05:00:21;;;;;;;3.93;3.63;;;6.60;45.60;;;;;;20557;6774;282239;-75
2023/04/03 05:02:56;;;;;;;8.20;7.60;;;6.70;45.40;;;;;;20533;6778;305905;-75
2023/04/03 05:05:32;;;;;;;4.65;4.35;;;7.00;44.10;;;;;;20533;6781;312242;-75
2023/04/03 05:08:08;;;;;;;3.55;3.25;;;7.30;43.30;;;;;;20571;6766;277224;-75
2023/04/03 05:10:43;;;;;;;3.67;3.42;;;7.50;42.50;;;;;;20576;6764;276252;-75
2023/04/03 05:13:19;;;;;;;3.40;3.20;;;7.60;42.00;;;;;;20612;6746;316155;-76
2023/04/03 05:15:54;;;;;;;3.53;3.33;;;7.60;40.80;;;;;;20640;6743;310574;-75
2023/04/03 05:18:30;;;;;;;3.30;3.07;;;7.70;40.80;;;;;;20805;6761;121799;-72
2023/04/03 05:21:06;;;;;;;2.93;2.73;;;7.40;41.90;;;;;;20794;6758;117902;-74
2023/04/03 05:23:42;;;;;;;4.23;3.83;;;7.00;42.80;;;;;;20551;6753;284123;-73
2023/04/03 05:26:20;;;;;;;4.32;4.00;;;7.20;41.00;;;;;;20598;6758;341163;-74
2023/04/03 05:28:55;;;;;;;6.62;6.03;;;7.20;41.00;;;;;;20574;6758;341138;-71
2023/04/03 05:31:31;;;;;;;3.07;2.67;;;7.40;40.40;;;;;;20771;6773;117037;-73
2023/04/03 05:34:07;;;;;;;3.15;2.95;;;7.20;41.10;;;;;;20476;6773;309291;-75
2023/04/03 05:36:43;;;;;;;3.07;2.87;;;7.10;41.00;;;;;;20765;6765;118436;-78
2023/04/03 05:39:18;;;;;;;3.00;2.80;;;7.00;41.70;;;;;;20818;6758;123308;-78
2023/04/03 05:41:54;;;;;;;2.70;2.50;;;6.70;42.40;;;;;;20769;6773;117998;-76
2023/04/03 05:44:29;;;;;;;3.10;2.90;;;6.50;43.20;;;;;;20477;6773;307205;-73
2023/04/03 05:47:05;;;;;;;3.22;3.03;;;6.60;42.70;;;;;;20537;6773;308402;-71
2023/04/03 05:49:41;;;;;;;3.20;3.00;;;7.00;41.50;;;;;;20831;6754;121266;-72
2023/04/03 05:52:22;;;;;;;3.50;3.03;;;6.90;42.00;;;;;;20818;6754;117411;-71
2023/04/03 05:54:59;;;;;;;3.40;3.20;;;6.80;41.60;;;;;;20446;6754;284075;-72
2023/04/03 05:57:34;;;;;;;3.17;2.97;;;6.80;41.60;;;;;;20618;6754;294168;-72
2023/04/03 06:00:15;;;;;;;3.00;2.80;;;7.10;40.80;;;;;;20834;6754;118186;-73
2023/04/03 06:02:49;;;;;;;4.40;3.30;;;7.10;41.50;;;;;;20588;6754;308917;-73
2023/04/03 06:05:24;;;;;;;2.60;2.40;;;7.20;40.80;;;;;;20659;6810;117788;-73
2023/04/03 06:08:00;;;;;;;3.03;2.67;;;7.10;41.20;;;;;;20809;6754;116269;-73
2023/04/03 06:10:36;;;;;;;3.17;2.97;;;6.90;41.80;;;;;;20608;6758;309243;-73
2023/04/03 06:13:12;;;;;;;3.20;3.00;;;7.00;40.30;;;;;;20535;6773;337784;-74
2023/04/03 06:15:47;;;;;;;2.80;2.60;;;7.30;39.60;;;;;;20644;6746;335766;-76
2023/04/03 06:18:23;;;;;;;2.90;2.70;;;7.60;39.10;;;;;;20596;6776;308361;-76
2023/04/03 06:21:00;;;;;;;2.50;2.40;;;7.80;38.70;;;;;;20663;6776;117651;-74
2023/04/03 06:23:34;;;;;;;2.30;2.20;;;7.60;39.60;;;;;;20759;6761;117644;-74
2023/04/03 06:26:10;;;;;;;3.33;3.13;;;7.20;40.50;;;;;;20828;6761;117119;-74
2023/04/03 06:28:45;;;;;;;3.40;3.20;;;6.90;41.20;;;;;;20603;6761;308802;-75
2023/04/03 06:31:22;;;;;;;2.90;2.70;;;7.00;40.70;;;;;;20607;6761;336028;-75
2023/04/03 06:33:58;;;;;;;2.83;2.72;;;7.40;40.00;;;;;;20522;6761;343338;-74
2023/04/03 06:36:34;;;;;;;2.80;2.60;;;7.60;39.30;;;;;;20638;6749;305769;-74
2023/04/03 06:39:09;;;;;;;2.43;2.23;;;7.80;39.10;;;;;;20835;6749;117049;-74
2023/04/03 06:41:44;;;;;;;3.15;2.95;;;7.60;39.60;;;;;;20634;6749;336537;-74
2023/04/03 06:44:20;;;;;;;3.08;2.87;;;7.50;39.50;;;;;;20421;6793;279469;-74
2023/04/03 06:46:55;;;;;;;2.80;2.60;;;7.70;39.40;;;;;;20833;6745;117811;-74
2023/04/03 06:49:31;;;;;;;11.98;10.90;;;7.50;40.20;;;;;;20562;6773;312798;-75
2023/04/03 06:52:07;;;;;;;2.70;2.60;;;7.50;39.70;;;;;;20567;6771;278029;-75
2023/04/03 06:54:43;;;;;;;4.90;4.53;;;7.90;39.10;;;;;;20488;6758;309530;-76
2023/04/03 06:57:19;;;;;;;4.47;4.18;;;7.80;39.10;;;;;;20667;6746;336105;-75
2023/04/03 06:59:56;;;;;;;3.35;3.05;;;8.00;39.00;;;;;;20602;6761;335779;-74
2023/04/03 07:02:31;;;;;;;3.40;3.10;;;8.10;38.50;;;;;;20621;6758;277310;-74
2023/04/03 07:05:08;;;;;;;3.00;2.80;;;8.30;38.70;;;;;;20444;6753;278590;-75
2023/04/03 07:07:43;;;;;;;3.12;2.92;;;8.30;38.70;;;;;;20605;6758;335810;-74
2023/04/03 07:10:19;;;;;;;2.40;2.30;;;8.40;38.30;;;;;;20735;6787;118222;-74
2023/04/03 07:12:54;;;;;;;2.60;2.40;;;8.20;39.30;;;;;;20792;6758;127225;-74
2023/04/03 07:15:31;;;;;;;2.40;2.30;;;7.80;40.10;;;;;;20564;6844;119585;-74
2023/04/03 07:18:07;;;;;;;2.53;2.40;;;7.50;40.90;;;;;;20773;6776;117107;-74
2023/04/03 07:20:42;;;;;;;2.90;2.70;;;7.30;41.40;;;;;;20558;6773;278795;-74
2023/04/03 07:23:18;;;;;;;2.30;2.20;;;7.40;40.80;;;;;;20762;6773;117437;-73
2023/04/03 07:25:54;;;;;;;5.37;2.30;;;7.30;41.30;;;;;;20837;6753;116940;-73
2023/04/03 07:28:30;;;;;;;2.53;2.43;;;7.30;41.30;;;;;;20811;6758;117480;-74
2023/04/03 07:31:07;;;;;;;3.27;2.50;;;7.10;41.80;;;;;;20759;6773;120813;-74
2023/04/03 07:33:43;;;;;;;4.45;4.12;;;7.30;40.90;;;;;;20477;6787;312312;-79
2023/04/03 07:36:18;;;;;;;2.80;2.60;;;7.20;40.80;;;;;;20780;6769;117073;-75
2023/04/03 07:38:54;;;;;;;2.85;2.75;;;7.40;41.40;;;;;;20497;6791;279195;-75
2023/04/03 07:41:30;;;;;;;3.00;2.80;;;7.60;40.40;;;;;;20584;6768;311528;-78
2023/04/03 07:44:11;;;;;;;3.97;3.60;;;8.00;40.40;;;;;;20539;6758;279749;-76
2023/04/03 07:46:42;;;;;;;3.30;3.10;;;8.40;39.90;;;;;;20620;6751;306950;-78
2023/04/03 07:49:17;;;;;;;2.50;2.30;;;8.70;39.80;;;;;;20807;6766;118535;-76
2023/04/03 07:51:52;;;;;;;2.57;2.43;;;8.60;39.60;;;;;;20815;6760;117046;-76
2023/04/03 07:54:28;;;;;;;2.80;2.70;;;8.40;39.90;;;;;;20501;6760;338909;-78
2023/04/03 07:57:04;;;;;;;2.80;2.70;;;8.40;39.80;;;;;;20737;6777;122580;-83
2023/04/03 07:59:40;;;;;;;4.53;3.30;;;8.40;40.40;;;;;;20737;6788;116303;-79
2023/04/03 08:02:15;;;;;;;4.95;3.70;;;8.30;41.00;;;;;;20626;6754;320812;-76
2023/04/03 08:05:16;;;;;;;2.97;2.73;;;8.50;40.30;;;;;;20688;6754;117943;-76
2023/04/03 08:07:46;;;;;;;2.87;2.67;;;8.60;40.80;;;;;;20601;6752;309819;-76
2023/04/03 08:10:21;;;;;;;2.67;2.47;;;8.90;39.20;;;;;;20837;6752;119967;-76
2023/04/03 08:12:58;;;;;;;2.50;2.30;;;9.00;39.90;;;;;;20791;6752;117211;-76
2023/04/03 08:15:35;;;;;;;9.93;4.90;;;8.70;41.00;;;;;;20865;6743;116841;-76
2023/04/03 08:18:10;;;;;;;3.10;2.90;;;8.60;40.90;;;;;;20614;6758;308027;-76
2023/04/03 08:20:46;;;;;;;2.57;2.40;;;8.80;39.60;;;;;;20755;6773;118304;-75
2023/04/03 08:23:21;;;;;;;2.90;2.70;;;8.90;40.00;;;;;;20582;6758;338617;-77
2023/04/03 08:25:57;;;;;;;2.78;2.58;;;9.00;38.70;;;;;;20626;6753;307101;-77
2023/04/03 08:28:41;;;;;;;3.20;2.93;;;9.30;38.20;;;;;;20622;6753;295157;-77
2023/04/03 08:31:10;;;;;;;2.97;2.70;;;9.50;37.70;;;;;;20852;6753;117082;-76
2023/04/03 08:33:44;;;;;;;3.00;2.80;;;9.50;39.00;;;;;;20570;6753;315583;-77
2023/04/03 08:36:20;;;;;;;2.57;2.40;;;9.60;38.30;;;;;;20880;6743;118549;-76
2023/04/03 08:38:55;;;;;;;3.00;2.80;;;9.50;38.90;;;;;;20594;6758;278499;-76
2023/04/03 08:41:41;;;;;;;2.70;2.50;;;9.60;37.80;;;;;;20618;6754;282815;-76
2023/04/03 08:44:38;;;;;;;2.85;2.65;;;9.80;37.80;;;;;;20526;6746;309721;-77
2023/04/03 08:47:24;;;;;;;4.50;3.03;;;10.00;35.80;;;;;;20566;6768;306855;-76
2023/04/03 08:49:59;;;;;;;2.77;2.57;;;10.20;35.60;;;;;;20772;6766;119187;-76
2023/04/03 08:52:38;;;;;;;18.98;14.93;;;9.90;37.60;;;;;;20578;6773;311035;-76
2023/04/03 08:55:33;;;;;;;2.90;2.70;;;9.90;36.90;;;;;;20597;6758;117898;-77
2023/04/03 08:58:12;;;;;;;3.43;3.23;;;9.70;38.40;;;;;;20609;6758;299960;-76
2023/04/03 09:00:49;;;;;;;3.10;2.90;;;10.00;35.80;;;;;;20594;6756;334943;-77
2023/04/03 09:03:24;;;;;;;2.90;2.70;;;9.90;36.70;;;;;;20805;6756;121055;-76
2023/04/03 09:06:13;;;;;;;4.00;3.67;;;9.90;37.60;;;;;;20866;6744;117979;-77
2023/04/03 09:09:05;;;;;;;2.70;2.50;;;9.30;39.70;;;;;;20759;6776;116966;-76
2023/04/03 09:11:50;;;;;;;3.17;2.90;;;9.30;39.20;;;;;;20593;6745;308559;-76
2023/04/03 09:14:29;;;;;;;2.57;2.47;;;9.50;38.00;;;;;;20643;6775;116056;-76
2023/04/03 09:17:16;;;;;;;3.10;3.00;;;9.60;37.50;;;;;;20489;6789;307722;-77
2023/04/03 09:19:54;;;;;;;3.83;3.57;;;9.60;37.50;;;;;;20822;6757;116864;-76
2023/04/03 09:22:31;;;;;;;4.73;4.40;;;9.60;38.40;;;;;;20785;6771;117348;-76
2023/04/03 09:25:15;;;;;;;2.90;2.70;;;9.40;39.00;;;;;;20645;6756;117731;-77
2023/04/03 09:27:51;;;;;;;3.23;3.00;;;9.20;39.60;;;;;;20840;6753;117365;-77
2023/04/03 09:30:26;;;;;;;3.77;3.47;;;9.00;39.90;;;;;;20867;6743;118376;-76
2023/04/03 09:33:01;;;;;;;3.23;2.77;;;8.90;40.10;;;;;;20793;6758;117619;-80
2023/04/03 09:35:37;;;;;;;2.85;2.65;;;8.80;40.60;;;;;;20606;6758;306680;-77
2023/04/03 09:38:13;;;;;;;2.90;2.70;;;9.10;38.30;;;;;;20608;6758;312560;-75
2023/04/03 09:40:48;;;;;;;2.63;2.43;;;9.50;37.30;;;;;;20854;6743;116949;-76
2023/04/03 09:43:30;;;;;;;2.57;2.47;;;9.40;37.90;;;;;;20840;6743;117060;-76
2023/04/03 09:46:26;;;;;;;2.70;2.40;;;9.20;38.50;;;;;;20823;6758;117325;-79
2023/04/03 09:49:02;;;;;;;3.10;2.90;;;9.30;37.90;;;;;;20516;6777;310989;-76
2023/04/03 09:51:40;;;;;;;2.77;2.67;;;9.30;37.90;;;;;;20580;6769;280641;-78
2023/04/03 09:54:25;;;;;;;3.40;2.97;;;9.70;37.10;;;;;;20729;6758;117373;-78
2023/04/03 09:57:00;;;;;;;3.20;2.87;;;9.60;37.70;;;;;;20613;6747;339848;-77
2023/04/03 09:59:36;;;;;;;3.47;3.28;;;9.80;36.60;;;;;;20650;6747;299414;-78
2023/04/03 10:02:21;;;;;;;3.10;2.90;;;10.00;35.00;;;;;;20857;6747;116938;-78
2023/04/03 10:04:57;;;;;;;4.20;3.90;;;9.90;37.00;;;;;;20373;6809;280006;-77
2023/04/03 10:07:32;;;;;;;3.20;3.00;;;10.00;36.10;;;;;;20646;6747;278680;-77
2023/04/03 10:10:14;;;;;;;3.37;3.17;;;10.30;34.40;;;;;;20644;6747;339995;-79
2023/04/03 10:12:50;;;;;;;2.87;2.77;;;10.50;33.70;;;;;;20839;6747;118343;-79
2023/04/03 10:15:26;;;;;;;3.00;2.80;;;10.10;34.30;;;;;;20368;6889;288403;-82
2023/04/03 10:18:01;;;;;;;3.10;2.90;;;10.10;34.30;;;;;;20649;6747;307184;-79
2023/04/03 10:20:37;;;;;;;4.70;4.30;;;10.40;34.20;;;;;;20869;6747;116903;-76
2023/04/03 10:23:32;;;;;;;4.67;4.27;;;10.20;35.00;;;;;;20829;6746;123040;-76
2023/04/03 10:26:32;;;;;;;6.60;5.97;;;9.60;37.40;;;;;;20846;6746;124151;-80
2023/04/03 10:29:31;;;;;;;2.90;2.70;;;9.50;37.30;;;;;;20814;6758;118121;-79
2023/04/03 10:32:20;;;;;;;7.43;6.70;;;9.10;38.30;;;;;;20725;6788;119349;-80
2023/04/03 10:35:02;;;;;;;2.40;2.30;;;9.10;38.40;;;;;;20570;6788;118598;-76
2023/04/03 10:38:04;;;;;;;2.77;2.57;;;9.00;38.50;;;;;;19916;6832;282676;-76
2023/04/03 10:40:40;;;;;;;3.00;2.47;;;9.20;35.40;;;;;;20826;6758;117071;-77
2023/04/03 10:43:25;;;;;;;3.10;2.90;;;9.20;36.40;;;;;;20553;6768;313881;-75
2023/04/03 10:46:04;;;;;;;3.37;3.07;;;9.30;34.60;;;;;;20838;6753;116815;-77
2023/04/03 10:48:49;;;;;;;6.03;5.53;;;9.40;35.70;;;;;;20844;6752;118357;-78
2023/04/03 10:51:44;;;;;;;2.77;2.47;;;9.20;36.40;;;;;;20829;6752;116921;-75
2023/04/03 10:54:24;;;;;;;2.00;1.90;;;9.10;37.20;;;;;;19957;6887;120657;-76
2023/04/03 10:57:03;;;;;;;2.70;2.27;;;9.00;37.50;;;;;;20830;6751;117339;-76
2023/04/03 10:59:55;;;;;;;2.17;2.07;;;8.90;38.20;;;;;;20703;6791;118676;-74
2023/04/03 11:02:31;;;;;;;3.22;2.95;;;8.90;38.20;;;;;;20519;6788;338158;-78
2023/04/03 11:05:10;;;;;;;2.73;2.53;;;9.20;34.80;;;;;;20601;6826;119494;-77
2023/04/03 11:07:45;;;;;;;3.10;2.80;;;9.30;35.60;;;;;;20857;6749;121079;-78
2023/04/03 11:10:43;;;;;;;1.80;1.70;;;9.30;35.60;;;;;;20862;6749;116810;-81
2023/04/03 11:13:23;;;;;;;2.70;2.50;;;9.20;36.10;;;;;;20833;6750;117403;-74
2023/04/03 11:15:58;;;;;;;2.50;2.40;;;9.10;36.80;;;;;;20860;6739;117174;-75
2023/04/03 11:18:37;;;;;;;2.27;2.07;;;9.10;36.80;;;;;;20826;6756;118154;-75
2023/04/03 11:21:21;;;;;;;2.40;2.20;;;9.10;37.10;;;;;;20873;6743;117135;-76
2023/04/03 11:23:56;;;;;;;4.50;2.60;;;9.00;36.50;;;;;;20754;6756;117390;-75
2023/04/03 11:26:33;;;;;;;2.87;2.40;;;8.80;36.50;;;;;;20608;6758;335917;-75
2023/04/03 11:29:08;;;;;;;2.30;2.20;;;9.00;34.70;;;;;;20817;6761;118013;-74
2023/04/03 11:32:23;;;;;;;2.03;1.93;;;9.10;35.20;;;;;;20857;6798;116971;-73
2023/04/03 11:34:59;;;;;;;2.33;2.20;;;9.00;35.80;;;;;;20410;6758;300532;-74
2023/04/03 11:37:38;;;;;;;3.23;1.90;;;9.30;33.70;;;;;;20759;6776;117942;-75
2023/04/03 11:40:26;;;;;;;2.97;2.20;;;9.40;34.40;;;;;;20551;6776;298052;-74
2023/04/03 11:43:02;;;;;;;2.67;2.47;;;9.60;33.10;;;;;;20573;6758;286281;-72
2023/04/03 11:45:38;;;;;;;2.70;2.45;;;10.00;31.50;;;;;;20608;6758;335802;-72
2023/04/03 11:48:28;;;;;;;2.40;2.10;;;10.30;30.80;;;;;;20862;6743;117079;-73
2023/04/03 11:51:16;;;;;;;2.97;2.20;;;10.30;31.90;;;;;;20728;6758;118366;-71
2023/04/03 11:53:48;;;;;;;2.17;2.03;;;9.90;33.50;;;;;;20679;6832;117266;-71
2023/04/03 11:56:24;;;;;;;2.17;2.07;;;9.70;34.30;;;;;;20835;6758;117740;-72
2023/04/03 11:59:05;;;;;;;2.17;2.08;;;9.40;34.80;;;;;;20600;6742;311466;-70
2023/04/03 12:01:45;;;;;;;2.40;2.20;;;9.90;33.20;;;;;;20646;6743;306604;-71
2023/04/03 12:04:20;;;;;;;2.20;2.10;;;9.90;32.70;;;;;;20453;6771;279598;-71
2023/04/03 12:06:59;;;;;;;1.77;1.67;;;10.30;31.10;;;;;;20692;6791;147786;-72
2023/04/03 12:09:42;;;;;;;1.77;1.67;;;10.10;32.00;;;;;;20725;6788;118564;-71
2023/04/03 12:12:20;;;;;;;2.00;1.90;;;9.80;33.80;;;;;;20726;6789;119333;-72
2023/04/03 12:14:56;;;;;;;1.90;1.80;;;9.60;34.30;;;;;;20374;6784;308895;-71
2023/04/03 12:17:31;;;;;;;2.30;2.10;;;9.70;32.40;;;;;;20764;6824;117007;-74
2023/04/03 12:20:47;;;;;;;2.43;2.23;;;9.70;33.40;;;;;;20763;6766;117481;-74
2023/04/03 12:23:35;;;;;;;2.23;2.03;;;9.70;34.30;;;;;;20795;6758;117344;-71
2023/04/03 12:26:19;;;;;;;2.20;2.00;;;9.60;34.80;;;;;;20607;6754;336237;-73
2023/04/03 12:28:55;;;;;;;2.33;2.10;;;9.80;32.80;;;;;;20799;6754;118620;-73
2023/04/03 12:31:30;;;;;;;3.97;1.90;;;9.90;33.80;;;;;;20873;6739;116783;-74
2023/04/03 12:34:12;;;;;;;2.20;2.00;;;9.80;34.30;;;;;;20734;6754;118900;-75
2023/04/03 12:36:57;;;;;;;2.25;2.15;;;9.70;34.50;;;;;;20584;6758;279962;-74
2023/04/03 12:39:36;;;;;;;2.95;2.58;;;9.80;32.30;;;;;;20656;6743;322160;-73
2023/04/03 12:42:11;;;;;;;2.20;2.00;;;10.20;30.50;;;;;;20873;6743;116901;-74
2023/04/03 12:44:57;;;;;;;2.33;2.12;;;10.20;31.50;;;;;;20460;6761;308632;-73
2023/04/03 12:47:32;;;;;;;2.10;2.00;;;10.30;30.50;;;;;;20569;6765;306851;-71
2023/04/03 12:50:29;;;;;;;1.83;1.73;;;10.60;29.90;;;;;;20763;6761;117240;-71
2023/04/03 12:53:04;;;;;;;3.13;2.93;;;10.50;31.10;;;;;;20754;6825;117985;-71
2023/04/03 12:55:40;;;;;;;9.63;7.62;;;10.30;30.90;;;;;;20561;6776;322189;-72
2023/04/03 12:58:26;;;;;;;42.40;20.17;;;10.30;30.90;;;;;;20625;6758;311063;-75
2023/04/03 13:01:12;;;;;;;2.60;2.40;;;10.50;31.30;;;;;;20734;6776;117905;-72
2023/04/03 13:03:47;;;;;;;3.27;2.77;;;10.40;31.10;;;;;;20747;6758;117532;-72
2023/04/03 13:06:27;;;;;;;3.17;2.27;;;10.10;31.90;;;;;;20718;6773;265618;-70
2023/04/03 13:09:03;;;;;;;2.57;2.43;;;9.90;33.20;;;;;;20827;6751;117074;-70
2023/04/03 13:11:38;;;;;;;2.55;2.35;;;9.70;33.80;;;;;;20569;6769;281500;-72
2023/04/03 13:14:21;;;;;;;2.83;2.60;;;9.80;32.30;;;;;;20439;6781;339773;-74
2023/04/03 13:17:00;;;;;;;2.12;2.03;;;10.20;30.50;;;;;;20499;6788;307643;-73
2023/04/03 13:19:35;;;;;;;2.00;1.90;;;10.50;30.00;;;;;;20756;6776;122955;-71
2023/04/03 13:22:11;;;;;;;2.42;2.15;;;10.50;31.20;;;;;;20576;6771;307887;-70
2023/04/03 13:24:47;;;;;;;2.10;1.90;;;10.80;30.00;;;;;;20388;6832;309332;-71
2023/04/03 13:27:23;;;;;;;1.93;1.83;;;10.80;30.00;;;;;;20822;6758;117274;-71
2023/04/03 13:29:58;;;;;;;2.03;1.93;;;10.80;31.20;;;;;;20811;6762;123477;-70
2023/04/03 13:32:34;;;;;;;2.15;2.05;;;10.50;31.60;;;;;;20602;6761;309205;-70
2023/04/03 13:35:30;;;;;;;2.10;1.90;;;10.60;29.90;;;;;;20493;6758;279013;-70
2023/04/03 13:38:18;;;;;;;2.47;2.27;;;10.80;29.20;;;;;;20605;6776;277745;-71
2023/04/03 13:40:54;;;;;;;4.03;3.73;;;11.00;28.80;;;;;;20550;6773;315508;-71